Time;durP1;ratioP1;P1;durP2;ratioP2;P2;SDS_P1;SDS_P2;PMS_P1;PMS_P2;Temp;Humidity;BMP_temperature;BMP_pressure;BME280_temperature;BME280_humidity;BME280_pressure;Samples;Min_cycle;Max_cycle;Signal;HPM_P1;HPM_P2
2024/02/07 00:00:09;;;;;;;;;;;;;;;9.77;92.35;99356.69;4196842;28;20024;-72
2024/02/07 00:02:12;;;;;;;;;;;;;;;9.73;93.07;99349.00;4179395;28;20416;-72
2024/02/07 00:04:14;;;;;;;;;;;;;;;9.70;93.73;99353.97;4197469;28;20010;-72
2024/02/07 00:06:17;;;;;;;;;;;;;;;9.67;94.09;99386.72;4198416;28;20027;-73
2024/02/07 00:08:19;;;;;;;;;;;;;;;9.66;94.04;99367.03;4198114;28;20022;-73
2024/02/07 00:10:21;;;;;;;;;;;;;;;9.63;94.61;99347.75;4198010;28;20017;-73
2024/02/07 00:12:22;;;;;;;;;;;;;;;9.59;95.08;99330.31;4195987;28;20027;-73
2024/02/07 00:14:24;;;;;;;;;;;;;;;9.55;95.52;99325.31;4178510;28;19963;-73
2024/02/07 00:16:26;;;;;;;;;;;;;;;9.51;95.96;99336.72;4197917;28;20672;-73
2024/02/07 00:18:28;;;;;;;;;;;;;;;9.49;96.22;99366.56;4198785;28;20428;-73
2024/02/07 00:20:30;;;;;;;;;;;;;;;9.47;96.58;99346.28;4196778;28;19925;-73
2024/02/07 00:22:35;;;;;;;;;;;;;;;9.45;96.91;99353.72;4197451;28;19925;-73
2024/02/07 00:24:39;;;;;;;;;;;;;;;9.43;96.91;99345.81;4197738;28;19963;-72
2024/02/07 00:26:41;;;;;;;;;;;;;;;9.43;97.21;99321.56;4198628;28;20031;-72
2024/02/07 00:28:43;;;;;;;;;;;;;;;9.42;97.01;99333.41;4172219;28;20019;-72
2024/02/07 00:30:45;;;;;;;;;;;;;;;9.42;97.09;99306.47;4197273;28;20458;-73
2024/02/07 00:32:46;;;;;;;;;;;;;;;9.37;97.54;99306.22;4196945;28;19963;-73
2024/02/07 00:34:48;;;;;;;;;;;;;;;9.39;97.83;99314.94;4197647;28;20018;-72
2024/02/07 00:36:50;;;;;;;;;;;;;;;9.35;97.85;99327.97;4177054;28;20020;-73
2024/02/07 00:38:54;;;;;;;;;;;;;;;9.34;98.16;99303.94;4198080;28;20375;-73
2024/02/07 00:40:56;;;;;;;;;;;;;;;9.33;98.00;99292.34;4197253;28;20505;-73
2024/02/07 00:42:58;;;;;;;;;;;;;;;9.38;97.93;99286.34;4196568;28;20328;-72
2024/02/07 00:45:00;;;;;;;;;;;;;;;9.38;97.65;99264.78;4195483;28;20016;-72
2024/02/07 00:47:02;;;;;;;;;;;;;;;9.39;97.61;99258.38;4197670;28;20015;-73
2024/02/07 00:49:04;;;;;;;;;;;;;;;9.45;97.18;99287.19;4197732;28;20019;-71
2024/02/07 00:51:07;;;;;;;;;;;;;;;9.48;96.77;99302.09;4197329;28;20011;-72
2024/02/07 00:53:09;;;;;;;;;;;;;;;9.44;96.67;99273.91;4197179;28;20090;-73
2024/02/07 00:55:12;;;;;;;;;;;;;;;9.44;96.54;99257.75;4197685;28;19964;-72
2024/02/07 00:57:14;;;;;;;;;;;;;;;9.40;96.98;99276.16;4189202;28;20490;-72
2024/02/07 00:59:17;;;;;;;;;;;;;;;9.37;97.15;99274.75;4195976;28;20059;-73
2024/02/07 01:01:20;;;;;;;;;;;;;;;9.39;97.36;99293.41;4196522;28;19968;-73
2024/02/07 01:03:22;;;;;;;;;;;;;;;9.31;97.58;99235.13;4197301;28;20433;-72
2024/02/07 01:05:23;;;;;;;;;;;;;;;9.31;97.86;99235.13;4197250;28;20019;-73
2024/02/07 01:07:24;;;;;;;;;;;;;;;9.32;97.89;99255.63;4197217;28;20015;-72
2024/02/07 01:09:29;;;;;;;;;;;;;;;9.30;98.19;99241.56;4195965;28;19951;-72
2024/02/07 01:11:32;;;;;;;;;;;;;;;9.32;97.81;99257.50;4195865;28;19952;-73
2024/02/07 01:13:34;;;;;;;;;;;;;;;9.31;97.70;99234.28;4197197;28;20056;-72
2024/02/07 01:15:37;;;;;;;;;;;;;;;9.28;97.69;99243.63;4194742;28;20031;-71
2024/02/07 01:17:39;;;;;;;;;;;;;;;9.34;97.57;99241.97;4198118;28;20429;-71
2024/02/07 01:19:40;;;;;;;;;;;;;;;9.33;97.62;99243.00;4195430;28;20560;-72
2024/02/07 01:21:42;;;;;;;;;;;;;;;9.28;98.06;99251.72;4195069;28;20392;-72
2024/02/07 01:23:44;;;;;;;;;;;;;;;9.27;98.14;99250.03;4197604;28;19975;-72
2024/02/07 01:25:46;;;;;;;;;;;;;;;9.29;98.19;99228.28;4197117;28;20003;-73
2024/02/07 01:27:49;;;;;;;;;;;;;;;9.32;98.06;99198.25;4196748;28;20364;-73
2024/02/07 01:29:50;;;;;;;;;;;;;;;9.32;98.20;99235.97;4195989;28;20023;-77
2024/02/07 01:31:53;;;;;;;;;;;;;;;9.34;98.07;99232.03;4195591;28;19931;-72
2024/02/07 01:33:55;;;;;;;;;;;;;;;9.32;98.28;99246.75;4196090;28;20023;-73
2024/02/07 01:35:58;;;;;;;;;;;;;;;9.31;98.25;99264.78;4195882;28;20015;-73
2024/02/07 01:38:07;;;;;;;;;;;;;;;9.29;98.59;99215.63;4196747;28;20015;-73
2024/02/07 01:40:10;;;;;;;;;;;;;;;9.30;98.63;99300.81;4195091;28;20015;-73
2024/02/07 01:42:12;;;;;;;;;;;;;;;9.27;99.11;99325.47;4195169;28;20007;-73
2024/02/07 01:44:15;;;;;;;;;;;;;;;9.24;99.55;99312.41;4197355;28;19964;-73
2024/02/07 01:46:17;;;;;;;;;;;;;;;9.21;99.60;99323.59;4197942;28;20018;-72
2024/02/07 01:48:19;;;;;;;;;;;;;;;9.18;100.00;99334.78;4194305;28;20532;-73
2024/02/07 01:50:21;;;;;;;;;;;;;;;9.15;99.96;99330.66;4177702;28;20283;-73
2024/02/07 01:52:24;;;;;;;;;;;;;;;9.13;99.68;99319.22;4196649;28;20015;-73
2024/02/07 01:54:26;;;;;;;;;;;;;;;9.10;99.41;99324.19;4197001;28;20021;-72
2024/02/07 01:56:28;;;;;;;;;;;;;;;9.07;99.27;99325.41;4179020;28;20035;-72
2024/02/07 01:58:30;;;;;;;;;;;;;;;9.05;99.00;99345.53;4197484;28;20036;-73
2024/02/07 02:00:34;;;;;;;;;;;;;;;9.02;98.91;99347.56;4196249;28;19996;-73
2024/02/07 02:02:36;;;;;;;;;;;;;;;9.00;98.72;99346.94;4196423;28;19958;-72
2024/02/07 02:04:38;;;;;;;;;;;;;;;8.99;98.75;99357.91;4196450;28;20417;-73
2024/02/07 02:06:40;;;;;;;;;;;;;;;8.97;98.81;99350.03;4196436;28;20631;-73
2024/02/07 02:08:42;;;;;;;;;;;;;;;8.95;99.07;99349.41;4196896;28;20007;-72
2024/02/07 02:10:44;;;;;;;;;;;;;;;8.93;98.77;99351.44;4169245;28;20016;-72
2024/02/07 02:12:46;;;;;;;;;;;;;;;8.91;98.55;99352.72;4195790;28;20018;-72
2024/02/07 02:14:48;;;;;;;;;;;;;;;8.89;98.38;99355.59;4197015;28;19967;-73
2024/02/07 02:16:51;;;;;;;;;;;;;;;8.88;98.24;99369.25;4197402;28;19971;-73
2024/02/07 02:18:54;;;;;;;;;;;;;;;8.84;98.19;99368.84;4178668;28;19971;-72
2024/02/07 02:20:56;;;;;;;;;;;;;;;8.83;98.19;99367.16;4196240;28;20025;-73
2024/02/07 02:23:11;;;;;;;;;;;;;;;8.80;97.74;99367.56;4194088;28;20807;-72
2024/02/07 02:25:27;;;;;;;;;;;;;;;8.75;97.07;99349.31;4194703;28;20389;-72
2024/02/07 02:27:33;;;;;;;;;;;;;;;8.67;95.99;99360.25;4194967;28;20019;-71
2024/02/07 02:29:37;;;;;;;;;;;;;;;8.66;95.37;99359.41;4194259;28;20020;-72
2024/02/07 02:31:39;;;;;;;;;;;;;;;8.64;94.82;99363.34;4195253;28;20023;-72
2024/02/07 02:33:41;;;;;;;;;;;;;;;8.60;94.30;99362.88;4195135;28;20015;-73
2024/02/07 02:35:43;;;;;;;;;;;;;;;8.58;93.71;99364.94;4195270;28;20016;-73
2024/02/07 02:37:45;;;;;;;;;;;;;;;8.54;93.56;99365.53;4177773;28;20027;-72
2024/02/07 02:39:47;;;;;;;;;;;;;;;8.52;93.25;99359.53;4193239;28;20019;-73
2024/02/07 02:41:49;;;;;;;;;;;;;;;8.49;93.46;99366.13;4174080;28;20024;-73
2024/02/07 02:43:52;;;;;;;;;;;;;;;8.48;93.85;99375.25;4195334;28;20030;-73
2024/02/07 02:45:55;;;;;;;;;;;;;;;8.47;93.97;99381.66;4195995;28;19974;-73
2024/02/07 02:47:56;;;;;;;;;;;;;;;8.45;93.54;99375.66;4195877;28;20024;-74
2024/02/07 02:49:59;;;;;;;;;;;;;;;8.44;93.40;99384.72;4176096;28;20329;-73
2024/02/07 02:52:03;;;;;;;;;;;;;;;8.42;92.95;99382.22;4195500;28;20015;-74
2024/02/07 02:54:06;;;;;;;;;;;;;;;8.37;92.29;99379.28;4178049;28;19960;-73
2024/02/07 02:56:09;;;;;;;;;;;;;;;8.38;92.39;99375.53;4195572;28;20432;-72
2024/02/07 02:58:11;;;;;;;;;;;;;;;8.39;92.18;99373.69;4194868;28;19928;-73
2024/02/07 03:00:14;;;;;;;;;;;;;;;8.39;92.04;99374.53;4191985;28;20003;-73
2024/02/07 03:02:20;;;;;;;;;;;;;;;8.35;90.80;99378.63;4195049;28;20368;-72
2024/02/07 03:04:22;;;;;;;;;;;;;;;8.31;90.75;99380.06;4195775;28;20032;-72
2024/02/07 03:06:29;;;;;;;;;;;;;;;8.28;90.71;99385.84;4195000;28;19925;-73
2024/02/07 03:08:42;;;;;;;;;;;;;;;8.28;90.82;99393.91;4186395;28;20020;-74
2024/02/07 03:10:44;;;;;;;;;;;;;;;8.26;90.71;99390.56;4193398;28;20028;-72
2024/02/07 03:12:46;;;;;;;;;;;;;;;8.24;90.76;99390.75;4190384;28;20052;-73
2024/02/07 03:14:48;;;;;;;;;;;;;;;8.22;90.70;99389.31;4195451;28;20039;-71
2024/02/07 03:16:50;;;;;;;;;;;;;;;8.18;90.41;99390.72;4194986;28;20023;-73
2024/02/07 03:18:56;;;;;;;;;;;;;;;8.15;90.50;99391.09;4195732;28;20023;-73
2024/02/07 03:20:58;;;;;;;;;;;;;;;8.12;90.82;99392.34;4194831;28;20024;-72
2024/02/07 03:23:03;;;;;;;;;;;;;;;8.10;90.51;99394.38;4194751;28;20727;-73
2024/02/07 03:25:07;;;;;;;;;;;;;;;8.06;90.66;99396.63;4185204;28;20358;-73
2024/02/07 03:27:11;;;;;;;;;;;;;;;8.04;91.03;99387.06;4194451;28;19928;-73
2024/02/07 03:29:12;;;;;;;;;;;;;;;8.01;91.31;99393.69;4193906;28;19984;-73
2024/02/07 03:31:14;;;;;;;;;;;;;;;7.99;91.39;99390.34;4193789;28;20015;-73
2024/02/07 03:33:19;;;;;;;;;;;;;;;7.99;91.30;99398.41;4193515;28;20039;-73
2024/02/07 03:35:22;;;;;;;;;;;;;;;7.98;91.32;99402.13;4197680;28;20342;-72
2024/02/07 03:37:24;;;;;;;;;;;;;;;7.92;89.89;99405.59;4198802;28;20128;-73
2024/02/07 03:39:26;;;;;;;;;;;;;;;7.89;88.62;99404.09;4199039;28;20020;-74
2024/02/07 03:41:29;;;;;;;;;;;;;;;7.86;88.25;99404.50;4195821;28;20023;-73
2024/02/07 03:43:33;;;;;;;;;;;;;;;7.84;87.60;99416.47;4197102;28;20450;-73
2024/02/07 03:45:37;;;;;;;;;;;;;;;7.81;87.06;99406.94;4172834;28;20016;-72
2024/02/07 03:47:39;;;;;;;;;;;;;;;7.78;86.36;99415.38;4198924;28;19956;-73
2024/02/07 03:49:42;;;;;;;;;;;;;;;7.77;85.94;99411.00;4172634;28;20019;-73
2024/02/07 03:51:46;;;;;;;;;;;;;;;7.70;85.19;99410.97;4198715;28;20023;-74
2024/02/07 03:53:48;;;;;;;;;;;;;;;7.64;84.49;99411.72;4196671;28;20442;-72
2024/02/07 03:55:50;;;;;;;;;;;;;;;7.65;85.13;99420.59;4198387;28;20015;-72
2024/02/07 03:57:52;;;;;;;;;;;;;;;7.61;84.48;99419.34;4197213;28;20015;-73
2024/02/07 03:59:54;;;;;;;;;;;;;;;7.55;83.98;99418.22;4197542;28;20376;-72
2024/02/07 04:01:56;;;;;;;;;;;;;;;7.52;83.92;99418.59;4197676;28;20445;-72
2024/02/07 04:03:57;;;;;;;;;;;;;;;7.49;84.22;99408.25;4180607;28;20021;-73
2024/02/07 04:06:00;;;;;;;;;;;;;;;7.51;85.01;99419.66;4198661;28;20398;-74
2024/02/07 04:08:04;;;;;;;;;;;;;;;7.45;84.67;99431.16;4172294;28;20469;-72
2024/02/07 04:10:09;;;;;;;;;;;;;;;7.41;85.01;99428.00;4157185;28;19989;-72
2024/02/07 05:16:46;;;;;;;;;;;;;;;6.55;83.46;99466.06;4196978;28;20019;-73
2024/02/07 05:18:48;;;;;;;;;;;;;;;6.54;83.52;99461.72;4194751;28;20016;-72
2024/02/07 05:20:50;;;;;;;;;;;;;;;6.54;83.86;99452.84;4195317;28;20015;-72
2024/02/07 05:22:52;;;;;;;;;;;;;;;6.50;83.68;99468.44;4196684;28;20034;-73
2024/02/07 05:24:55;;;;;;;;;;;;;;;6.49;83.25;99459.56;4196853;28;20016;-71
2024/02/07 05:26:56;;;;;;;;;;;;;;;6.46;83.14;99462.63;4194575;28;20027;-71
2024/02/07 05:29:02;;;;;;;;;;;;;;;6.44;83.45;99459.28;4197533;28;20056;-73
2024/02/07 05:31:04;;;;;;;;;;;;;;;6.42;83.62;99458.63;4196652;28;20027;-73
2024/02/07 05:33:05;;;;;;;;;;;;;;;6.42;83.97;99447.06;4193553;28;20446;-73
2024/02/07 05:35:07;;;;;;;;;;;;;;;6.40;83.44;99454.47;4195980;28;20031;-73
2024/02/07 05:37:09;;;;;;;;;;;;;;;6.38;83.52;99443.91;4196551;28;20019;-73
2024/02/07 05:39:11;;;;;;;;;;;;;;;6.35;82.78;99454.16;4194997;28;20020;-72
2024/02/07 05:41:12;;;;;;;;;;;;;;;6.31;82.96;99441.13;4195170;28;20392;-73
2024/02/07 05:43:14;;;;;;;;;;;;;;;6.30;82.87;99433.25;4195035;28;20037;-73
2024/02/07 05:45:18;;;;;;;;;;;;;;;6.26;82.65;99445.38;4171001;28;20076;-73
2024/02/07 05:47:20;;;;;;;;;;;;;;;6.23;82.70;99454.59;4172038;28;20008;-73
2024/02/07 05:49:22;;;;;;;;;;;;;;;6.18;82.76;99453.50;4194721;28;20015;-73
2024/02/07 05:51:26;;;;;;;;;;;;;;;6.15;82.74;99452.00;4194924;28;19924;-73
2024/02/07 05:53:27;;;;;;;;;;;;;;;6.10;83.02;99457.06;4196805;28;20074;-74
2024/02/07 05:55:29;;;;;;;;;;;;;;;6.09;83.17;99456.22;4178854;28;20408;-74
2024/02/07 05:57:33;;;;;;;;;;;;;;;6.06;83.67;99461.94;4196054;28;20014;-72
2024/02/07 05:59:34;;;;;;;;;;;;;;;6.04;83.35;99461.28;4196013;28;20465;-73
2024/02/07 06:01:38;;;;;;;;;;;;;;;6.01;83.02;99464.31;4195960;28;20027;-73
2024/02/07 06:03:40;;;;;;;;;;;;;;;5.99;82.94;99461.00;4196444;28;20490;-72
2024/02/07 06:05:43;;;;;;;;;;;;;;;5.94;82.98;99468.69;4196601;28;19999;-72
2024/02/07 06:07:45;;;;;;;;;;;;;;;5.94;83.01;99468.69;4196388;28;19991;-73
2024/02/07 06:09:47;;;;;;;;;;;;;;;5.89;83.12;99477.28;4168267;28;20583;-73
2024/02/07 06:11:51;;;;;;;;;;;;;;;5.85;83.76;99492.03;4191500;28;19952;-72
2024/02/07 06:13:53;;;;;;;;;;;;;;;5.82;84.12;99484.34;4194627;28;20075;-72
2024/02/07 06:15:55;;;;;;;;;;;;;;;5.81;84.09;99471.94;4196657;28;20434;-73
2024/02/07 06:17:58;;;;;;;;;;;;;;;5.76;84.33;99483.19;4196043;28;20027;-73
2024/02/07 06:20:00;;;;;;;;;;;;;;;5.76;84.26;99474.34;4195215;28;20055;-73
2024/02/07 06:22:02;;;;;;;;;;;;;;;5.75;84.34;99475.34;4176849;28;20047;-73
2024/02/07 06:24:03;;;;;;;;;;;;;;;5.73;84.51;99477.38;4177315;28;20403;-73
2024/02/07 06:26:05;;;;;;;;;;;;;;;5.66;84.53;99471.91;4195174;28;20587;-73
2024/02/07 06:28:06;;;;;;;;;;;;;;;5.68;84.40;99463.69;4195465;28;20016;-73
2024/02/07 06:30:08;;;;;;;;;;;;;;;5.63;84.27;99474.94;4195917;28;20708;-73
2024/02/07 06:32:11;;;;;;;;;;;;;;;5.64;84.51;99473.06;4178190;28;20520;-72
2024/02/07 06:34:14;;;;;;;;;;;;;;;5.60;84.49;99476.09;4196150;28;20575;-73
2024/02/07 06:36:16;;;;;;;;;;;;;;;5.61;84.69;99474.25;4196152;28;20438;-73
2024/02/07 06:38:18;;;;;;;;;;;;;;;5.59;84.42;99482.50;4196511;28;19971;-73
2024/02/07 06:40:20;;;;;;;;;;;;;;;5.58;84.45;99471.94;4194657;28;20450;-73
2024/02/07 06:42:22;;;;;;;;;;;;;;;5.55;84.78;99481.16;4193306;28;20031;-73
2024/02/07 06:44:24;;;;;;;;;;;;;;;5.55;84.70;99475.81;4194258;28;20011;-72
2024/02/07 06:46:26;;;;;;;;;;;;;;;5.56;85.26;99476.63;4194978;28;20019;-72
2024/02/07 06:48:28;;;;;;;;;;;;;;;5.56;85.45;99484.66;4195991;28;19956;-72
2024/02/07 06:50:31;;;;;;;;;;;;;;;5.52;85.65;99480.69;4193879;28;20438;-72
2024/02/07 06:52:33;;;;;;;;;;;;;;;5.51;85.72;99477.16;4194194;28;19929;-73
2024/02/07 06:54:35;;;;;;;;;;;;;;;5.53;85.63;99476.97;4193300;28;20080;-73
2024/02/07 06:56:37;;;;;;;;;;;;;;;5.51;85.64;99487.03;4176348;28;20016;-73
2024/02/07 06:58:39;;;;;;;;;;;;;;;5.50;85.79;99491.56;4194429;28;20011;-73
2024/02/07 07:00:40;;;;;;;;;;;;;;;5.51;85.61;99522.69;4193349;28;20025;-72
2024/02/07 07:02:42;;;;;;;;;;;;;;;5.49;85.39;99495.25;4192242;28;20022;-73
2024/02/07 07:04:44;;;;;;;;;;;;;;;5.49;85.59;99491.75;4193106;28;20362;-72
2024/02/07 07:06:47;;;;;;;;;;;;;;;5.47;85.64;99497.28;4194094;28;20028;-71
2024/02/07 07:08:50;;;;;;;;;;;;;;;5.45;85.48;99501.94;4192242;28;20007;-73
2024/02/07 07:10:52;;;;;;;;;;;;;;;5.43;86.08;99492.44;4191549;28;20012;-73
2024/02/07 07:12:54;;;;;;;;;;;;;;;5.41;85.96;99506.00;4193490;28;20060;-72
2024/02/07 07:14:56;;;;;;;;;;;;;;;5.43;86.00;99503.16;4195461;28;20018;-73
2024/02/07 07:16:58;;;;;;;;;;;;;;;5.41;86.32;99500.66;4193559;28;20023;-73
2024/02/07 07:19:01;;;;;;;;;;;;;;;5.41;86.50;99497.97;4193731;28;20015;-74
2024/02/07 07:21:02;;;;;;;;;;;;;;;5.40;86.71;99501.63;4194097;28;20020;-73
2024/02/07 07:23:06;;;;;;;;;;;;;;;5.41;86.99;99519.38;4191714;28;20007;-72
2024/02/07 07:25:07;;;;;;;;;;;;;;;5.40;86.51;99504.31;4192043;28;20023;-72
2024/02/07 07:27:09;;;;;;;;;;;;;;;5.42;86.54;99499.63;4192400;28;20006;-72
2024/02/07 07:29:11;;;;;;;;;;;;;;;5.39;86.43;99500.81;4191839;28;20019;-73
2024/02/07 07:31:13;;;;;;;;;;;;;;;5.39;86.31;99503.50;4192079;28;20042;-72
2024/02/07 07:33:15;;;;;;;;;;;;;;;5.38;86.99;99509.03;4193095;28;19928;-72
2024/02/07 07:35:17;;;;;;;;;;;;;;;5.38;87.03;99517.88;4194880;28;20015;-73
2024/02/07 07:37:20;;;;;;;;;;;;;;;5.37;87.29;99526.91;4193266;28;20007;-72
2024/02/07 15:15:10;;;;;;;;;;;;;;;6.56;52.03;99862.06;440332;26;20969;-84
2024/02/07 15:17:30;;;;;;;;;;;;;;;6.54;51.92;99858.75;4209017;28;19943;-83
2024/02/07 15:19:50;;;;;;;;;;;;;;;6.53;52.79;99862.41;4188656;28;20038;-83
2024/02/07 15:22:11;;;;;;;;;;;;;;;6.53;52.85;99869.66;4206827;28;19938;-81
2024/02/07 15:24:32;;;;;;;;;;;;;;;6.49;52.58;99869.97;4208697;28;19952;-84
2024/02/07 15:26:53;;;;;;;;;;;;;;;6.47;52.47;99869.34;4192863;28;19931;-85
2024/02/07 15:29:13;;;;;;;;;;;;;;;6.45;52.26;99873.19;4192498;28;20462;-82
2024/02/07 15:31:35;;;;;;;;;;;;;;;6.43;52.10;99869.84;4210151;28;20409;-82
2024/02/07 15:33:56;;;;;;;;;;;;;;;6.40;52.32;99881.75;4196478;28;19935;-84
2024/02/07 15:36:16;;;;;;;;;;;;;;;6.40;52.67;99875.56;4210794;28;20382;-82
2024/02/07 15:38:37;;;;;;;;;;;;;;;6.39;51.42;99882.75;4196661;28;19931;-81
2024/02/07 15:40:58;;;;;;;;;;;;;;;6.35;51.00;99880.56;4208656;28;19952;-80
2024/02/07 15:43:18;;;;;;;;;;;;;;;6.34;51.11;99889.63;4209996;28;19982;-81
2024/02/07 15:45:39;;;;;;;;;;;;;;;6.32;51.34;99881.75;4195219;28;19971;-86
2024/02/07 15:48:01;;;;;;;;;;;;;;;6.29;51.52;99887.47;4210633;28;19931;-81
2024/02/07 15:50:21;;;;;;;;;;;;;;;6.28;51.72;99888.47;4209391;28;19982;-80
2024/02/07 15:52:42;;;;;;;;;;;;;;;6.27;52.56;99889.47;4208905;28;19977;-81
2024/02/07 15:55:02;;;;;;;;;;;;;;;6.25;52.57;99891.47;4209010;28;19935;-80
2024/02/07 15:57:22;;;;;;;;;;;;;;;6.24;54.62;99896.03;4209502;28;19938;-82
2024/02/07 15:59:42;;;;;;;;;;;;;;;6.20;53.39;99905.41;4209205;28;19935;-82
2024/02/07 16:02:03;;;;;;;;;;;;;;;6.17;52.83;99905.75;4207443;28;19957;-81
2024/02/07 16:04:25;;;;;;;;;;;;;;;6.15;52.82;99918.47;4196575;28;19932;-82
2024/02/07 16:06:46;;;;;;;;;;;;;;;6.15;53.50;99918.47;4209998;28;19951;-82
2024/02/07 16:09:06;;;;;;;;;;;;;;;6.12;53.40;99919.66;4210409;28;19967;-82
2024/02/07 16:11:28;;;;;;;;;;;;;;;6.11;53.68;99925.19;4210838;28;19931;-83
2024/02/07 16:13:50;;;;;;;;;;;;;;;6.09;53.93;99928.03;4196917;28;20046;-85
2024/02/07 16:16:11;;;;;;;;;;;;;;;6.07;53.30;99923.84;4194112;28;19958;-84
2024/02/07 16:18:32;;;;;;;;;;;;;;;6.05;53.46;99929.38;4196904;28;20386;-86
2024/02/07 16:20:54;;;;;;;;;;;;;;;6.04;54.51;99924.19;4206034;28;20287;-88
2024/02/07 16:23:15;;;;;;;;;;;;;;;6.00;54.33;99922.84;4208188;28;20038;-88
2024/02/07 16:25:35;;;;;;;;;;;;;;;5.99;53.86;99932.72;4179331;28;20024;-86
2024/02/07 16:27:56;;;;;;;;;;;;;;;5.97;54.41;99940.09;4209379;28;19932;-85
2024/02/07 16:30:17;;;;;;;;;;;;;;;5.95;54.07;99937.53;4208444;28;20046;-91
2024/02/07 16:32:37;;;;;;;;;;;;;;;5.93;54.73;99941.41;4207085;28;19935;-87
2024/02/07 16:34:58;;;;;;;;;;;;;;;5.91;54.37;99946.94;4209963;28;19932;-89
2024/02/07 16:37:20;;;;;;;;;;;;;;;5.92;55.39;99943.25;4194973;28;19976;-89
2024/02/07 16:39:44;;;;;;;;;;;;;;;5.91;55.67;99943.44;4193132;28;20008;-89
2024/02/07 16:42:05;;;;;;;;;;;;;;;5.89;55.72;99946.28;4195896;28;20359;-89
2024/02/07 16:44:27;;;;;;;;;;;;;;;5.87;56.07;99939.38;4196069;28;19931;-89
2024/02/07 16:46:48;;;;;;;;;;;;;;;5.86;56.25;99956.47;4200899;28;20432;-88
2024/02/07 16:49:11;;;;;;;;;;;;;;;5.82;55.51;99947.94;4197050;28;19939;-86
2024/02/07 16:51:32;;;;;;;;;;;;;;;5.81;55.76;99956.97;4212201;28;20010;-87
2024/02/07 16:53:56;;;;;;;;;;;;;;;5.79;56.25;99964.34;4201115;28;19931;-87
2024/02/07 16:56:18;;;;;;;;;;;;;;;5.77;56.22;99964.50;4198248;28;19931;-84
2024/02/07 16:58:40;;;;;;;;;;;;;;;5.76;56.48;99968.16;4183652;28;20452;-85
2024/02/07 17:01:01;;;;;;;;;;;;;;;5.76;56.89;99970.84;4209598;28;20032;-86
2024/02/07 17:03:23;;;;;;;;;;;;;;;5.75;56.52;99971.88;4210649;28;19990;-87
2024/02/07 17:05:44;;;;;;;;;;;;;;;5.74;56.87;99972.03;4198898;28;19994;-85
2024/02/07 17:08:05;;;;;;;;;;;;;;;5.73;56.93;99973.03;4212518;28;19934;-86
2024/02/07 17:10:27;;;;;;;;;;;;;;;5.69;56.73;99975.22;4198071;28;20389;-85
2024/02/07 17:12:48;;;;;;;;;;;;;;;5.67;56.63;99981.72;4214693;28;20019;-86
2024/02/07 17:15:11;;;;;;;;;;;;;;;5.64;56.68;99974.00;4197263;28;19970;-86
2024/02/07 17:17:32;;;;;;;;;;;;;;;5.62;56.96;99973.34;4185300;28;20373;-84
2024/02/07 17:19:53;;;;;;;;;;;;;;;5.58;56.97;99981.69;4199146;28;20460;-84
2024/02/07 17:22:14;;;;;;;;;;;;;;;5.55;57.21;99978.53;4197722;28;19967;-85
2024/02/07 17:24:35;;;;;;;;;;;;;;;5.51;57.48;99978.00;4213254;28;19930;-85
2024/02/07 17:27:05;;;;;;;;;;;;;;;5.49;57.70;99979.16;4214760;28;19967;-86
2024/02/07 17:29:28;;;;;;;;;;;;;;;5.47;57.89;99982.00;4210513;28;20371;-86
2024/02/07 17:31:54;;;;;;;;;;;;;;;5.45;57.88;99981.31;4197414;28;19931;-87
2024/02/07 17:34:18;;;;;;;;;;;;;;;5.41;58.44;99988.03;4213417;28;20311;-86
2024/02/07 17:36:41;;;;;;;;;;;;;;;5.38;58.50;99989.16;4196495;28;19947;-84
2024/02/07 17:39:01;;;;;;;;;;;;;;;5.33;58.53;99986.16;4198666;28;19975;-82
2024/02/07 17:41:22;;;;;;;;;;;;;;;5.32;59.03;99989.81;4182704;28;20026;-84
2024/02/07 17:43:46;;;;;;;;;;;;;;;5.32;59.57;99988.97;4212329;28;20057;-82
2024/02/07 17:46:07;;;;;;;;;;;;;;;5.29;59.54;99986.63;4211602;28;20009;-81
2024/02/07 17:48:28;;;;;;;;;;;;;;;5.26;59.98;99987.78;4211711;28;20277;-83
2024/02/07 17:50:49;;;;;;;;;;;;;;;5.26;60.43;99994.97;4197539;28;19931;-82
2024/02/07 17:53:10;;;;;;;;;;;;;;;5.23;60.32;99988.09;4182589;28;19932;-82
2024/02/07 17:55:31;;;;;;;;;;;;;;;5.21;60.41;99993.63;4196247;28;19931;-83
2024/02/07 17:57:52;;;;;;;;;;;;;;;5.22;60.52;99991.78;4197371;28;20410;-86
2024/02/07 18:00:16;;;;;;;;;;;;;;;5.21;60.66;99996.28;4196007;28;19935;-82
2024/02/07 18:02:36;;;;;;;;;;;;;;;5.19;60.66;99995.63;4192839;28;20348;-84
2024/02/07 18:04:57;;;;;;;;;;;;;;;5.20;61.04;100001.81;4194518;28;20310;-85
2024/02/07 18:07:18;;;;;;;;;;;;;;;5.19;61.37;100000.97;4216044;28;19974;-87
2024/02/07 18:09:39;;;;;;;;;;;;;;;5.19;61.33;99992.13;4196556;28;19931;-84
2024/02/07 18:12:01;;;;;;;;;;;;;;;5.18;61.55;99998.47;4198142;28;19958;-82
2024/02/07 18:14:22;;;;;;;;;;;;;;;5.17;61.38;100004.81;4184251;28;19937;-86
2024/02/07 18:16:46;;;;;;;;;;;;;;;5.17;61.52;100004.81;4195503;28;19986;-89
2024/02/07 18:19:07;;;;;;;;;;;;;;;5.15;61.81;99999.59;4197443;28;20446;-90
2024/02/07 18:21:29;;;;;;;;;;;;;;;5.15;61.95;100004.13;4198016;28;20350;-90
2024/02/07 18:23:54;;;;;;;;;;;;;;;5.12;62.07;100005.28;4198232;28;19931;-92
2024/02/07 18:26:15;;;;;;;;;;;;;;;5.11;62.28;100006.28;4184675;28;19939;-88
2024/02/07 18:28:36;;;;;;;;;;;;;;;5.08;62.65;100005.75;4198385;28;19967;-88
2024/02/07 18:30:58;;;;;;;;;;;;;;;5.08;62.32;100000.41;4184474;28;20279;-86
2024/02/07 18:36:19;;;;;;;;;;;;;;;5.03;62.82;100008.91;4183816;28;20006;-90
2024/02/07 18:38:38;;;;;;;;;;;;;;;5.02;63.31;100008.06;4212621;28;20026;-88
2024/02/07 18:40:59;;;;;;;;;;;;;;;5.01;63.35;100008.22;4199230;28;20437;-90
2024/02/07 18:43:20;;;;;;;;;;;;;;;4.99;63.58;100015.59;4212812;28;20011;-93
2024/02/07 18:45:41;;;;;;;;;;;;;;;4.98;63.74;100012.06;4202038;28;20504;-87
2024/02/07 18:48:03;;;;;;;;;;;;;;;4.97;63.70;100018.44;4215589;28;19978;-85
2024/02/07 18:50:28;;;;;;;;;;;;;;;4.95;63.68;100012.38;4206019;28;19969;-87
2024/02/07 18:53:00;;;;;;;;;;;;;;;4.94;63.73;100012.56;4177765;28;19931;-90
2024/02/07 18:55:21;;;;;;;;;;;;;;;4.92;63.91;100011.84;4198426;28;19984;-86
2024/02/07 18:57:42;;;;;;;;;;;;;;;4.91;64.43;100012.88;4211286;28;19982;-87
2024/02/07 19:00:03;;;;;;;;;;;;;;;4.86;64.31;100008.81;4198053;28;19940;-87
2024/02/07 19:02:29;;;;;;;;;;;;;;;4.86;64.39;100005.31;4212587;28;19978;-87
2024/02/07 19:05:06;;;;;;;;;;;;;;;4.85;64.78;100006.31;4198288;28;19935;-84
2024/02/07 19:07:27;;;;;;;;;;;;;;;4.85;64.90;100003.63;4196432;28;19931;-84
2024/02/07 19:09:53;;;;;;;;;;;;;;;4.85;65.05;100012.50;4197613;28;19931;-86
2024/02/07 19:12:14;;;;;;;;;;;;;;;4.86;65.44;100008.00;4212022;28;19930;-86
2024/02/07 19:14:35;;;;;;;;;;;;;;;4.86;65.58;100011.50;4192999;28;20342;-87
2024/02/07 19:16:57;;;;;;;;;;;;;;;4.86;65.44;100010.69;4204743;28;19931;-87
2024/02/07 19:19:20;;;;;;;;;;;;;;;4.85;65.54;100008.97;4195974;28;19962;-89
2024/02/07 19:21:43;;;;;;;;;;;;;;;4.85;66.07;100006.31;4209332;28;20282;-85
2024/02/07 19:24:09;;;;;;;;;;;;;;;4.85;66.07;100009.81;4214681;28;19969;-86
2024/02/07 19:26:54;;;;;;;;;;;;;;;4.86;66.31;100008.81;4201573;28;20001;-87
2024/02/07 19:29:50;;;;;;;;;;;;;;;4.85;66.02;100009.81;4206891;28;19995;-85
2024/02/07 19:32:44;;;;;;;;;;;;;;;4.87;66.64;100017.69;4186254;28;20266;-84
2024/02/07 19:35:05;;;;;;;;;;;;;;;4.85;66.81;100009.81;4185889;28;19971;-85
2024/02/07 19:37:30;;;;;;;;;;;;;;;4.85;66.28;100017.00;4198799;28;19984;-84
2024/02/07 19:40:22;;;;;;;;;;;;;;;4.85;66.06;100019.69;4218864;28;19946;-84
2024/02/07 19:43:04;;;;;;;;;;;;;;;4.83;66.14;100016.34;4213531;28;19928;-87
2024/02/07 19:45:53;;;;;;;;;;;;;;;4.80;65.80;100025.50;4201827;28;19931;-87
2024/02/07 19:48:36;;;;;;;;;;;;;;;4.77;66.36;100035.69;4164467;28;20028;-84
2024/02/07 19:51:01;;;;;;;;;;;;;;;4.74;66.04;100033.34;4182974;28;19955;-85
2024/02/07 19:56:19;;;;;;;;;;;;;;;4.65;66.80;100033.25;4216239;28;20385;-86
2024/02/07 19:58:44;;;;;;;;;;;;;;;4.59;67.20;100036.56;4200633;28;19931;-84
2024/02/07 20:01:12;;;;;;;;;;;;;;;4.58;67.59;100026.88;4212498;28;20385;-83
2024/02/07 20:03:34;;;;;;;;;;;;;;;4.52;67.44;100030.16;4193990;28;19931;-85
2024/02/07 20:05:56;;;;;;;;;;;;;;;4.47;67.75;100027.13;4193082;28;19939;-85
2024/02/07 20:08:17;;;;;;;;;;;;;;;4.44;68.00;100028.25;4198666;28;19954;-83
2024/02/07 20:10:40;;;;;;;;;;;;;;;4.44;67.98;100030.09;4210200;28;19998;-85
2024/02/07 20:13:04;;;;;;;;;;;;;;;4.39;68.20;100019.88;4213926;28;19947;-83